KAL9214 KLAX-RKSI
Flight info
| Callsign | KAL9214 |
|---|---|
| Flight time | N/A |
| Altitude | 30000 |
| Route | N0498F300 SUMMR2 MCKEY DCT LIBBO DCT BRINY DCT BOARS DCT AMAKR/N0482F340 DCT LATNE/M084F340 DCT 43N130W 48N140W 53N150W 55N160W/N0485F360 DCT CDB/M084F360 A342 NUZAN R220 NODAN/N0494F360 R217 ASTER Y514 SDE Y512 GTC L512 TENAS Y437 KAE Y697 KARBU DCT |
| Aircraft | B748/H-SDE2FGHIJ1J2J3J4J5M1P2RWXYZ/LB1D1G1 |
Departure
| Time | 2026-05-04 07:34 |
|---|---|
| Airport | Los Angeles International Airport (KLAX) |
Arrival
| Time | N/A |
|---|---|
| Airport | Incheon International Airport (RKSI) |
| Time | Latitude | Longitude | Altitude | Speed | Heading |
|---|---|---|---|---|---|
| 2026-05-04 06:25 | 33.93357 | -118.39235 | 140 ft | 0 kts | 180° |
| 2026-05-04 07:22 | 33.93487 | -118.39239 | 139 ft | 4 kts | 161° |
| 2026-05-04 07:22 | 33.93506 | -118.39249 | 139 ft | 4 kts | 127° |
| 2026-05-04 07:23 | 33.93512 | -118.39260 | 139 ft | 3 kts | 82° |
| 2026-05-04 07:23 | 33.93508 | -118.39292 | 139 ft | 4 kts | 82° |
| 2026-05-04 07:23 | 33.93506 | -118.39309 | 139 ft | 0 kts | 82° |
| 2026-05-04 07:27 | 33.93507 | -118.39295 | 139 ft | 5 kts | 82° |
| 2026-05-04 07:27 | 33.93516 | -118.39222 | 139 ft | 12 kts | 83° |
| 2026-05-04 07:27 | 33.93529 | -118.39095 | 139 ft | 16 kts | 83° |
| 2026-05-04 07:27 | 33.93541 | -118.38968 | 139 ft | 15 kts | 83° |
| 2026-05-04 07:28 | 33.93553 | -118.38853 | 139 ft | 12 kts | 83° |
| 2026-05-04 07:28 | 33.93563 | -118.38757 | 139 ft | 11 kts | 83° |
| 2026-05-04 07:28 | 33.93572 | -118.38665 | 139 ft | 11 kts | 83° |
| 2026-05-04 07:28 | 33.93580 | -118.38586 | 139 ft | 8 kts | 83° |
| 2026-05-04 07:29 | 33.93587 | -118.38520 | 139 ft | 8 kts | 83° |
| 2026-05-04 07:29 | 33.93593 | -118.38456 | 139 ft | 8 kts | 83° |
| 2026-05-04 07:29 | 33.93600 | -118.38395 | 139 ft | 7 kts | 83° |
| 2026-05-04 07:29 | 33.93601 | -118.38379 | 139 ft | 0 kts | 83° |
| 2026-05-04 07:30 | 33.93602 | -118.38373 | 139 ft | 3 kts | 83° |
| 2026-05-04 07:31 | 33.93607 | -118.38324 | 139 ft | 7 kts | 83° |
| 2026-05-04 07:31 | 33.93632 | -118.38281 | 139 ft | 7 kts | 18° |
| 2026-05-04 07:33 | 33.93727 | -118.38385 | 139 ft | 23 kts | 263° |
| 2026-05-04 07:33 | 33.93680 | -118.38821 | 139 ft | 82 kts | 263° |
| 2026-05-04 07:33 | 33.93584 | -118.39743 | 140 ft | 138 kts | 263° |
| 2026-05-04 07:33 | 33.93450 | -118.41085 | 191 ft | 179 kts | 263° |
| 2026-05-04 07:34 | 33.93311 | -118.42607 | 763 ft | 182 kts | 263° |
| 2026-05-04 07:34 | 33.93202 | -118.44077 | 1638 ft | 176 kts | 263° |
| 2026-05-04 07:34 | 33.93031 | -118.45565 | 2041 ft | 182 kts | 262° |
| 2026-05-04 07:34 | 33.92905 | -118.47090 | 2303 ft | 183 kts | 264° |
| 2026-05-04 07:35 | 33.92840 | -118.48631 | 2586 ft | 186 kts | 266° |
| 2026-05-04 07:35 | 33.92821 | -118.50199 | 2850 ft | 190 kts | 267° |
| 2026-05-04 07:35 | 33.92746 | -118.51797 | 3116 ft | 193 kts | 264° |
| 2026-05-04 07:35 | 33.92604 | -118.53419 | 3382 ft | 197 kts | 262° |
| 2026-05-04 07:36 | 33.92446 | -118.55072 | 3643 ft | 201 kts | 262° |
| 2026-05-04 07:36 | 33.92292 | -118.56762 | 3902 ft | 205 kts | 263° |
| 2026-05-04 07:38 | 33.91746 | -118.69734 | 5612 ft | 241 kts | 270° |
| 2026-05-04 07:38 | 33.91747 | -118.71779 | 5869 ft | 247 kts | 269° |
| 2026-05-04 07:38 | 33.91741 | -118.73879 | 6128 ft | 254 kts | 269° |
| 2026-05-04 07:38 | 33.91732 | -118.76042 | 6384 ft | 262 kts | 269° |
| 2026-05-04 07:39 | 33.91721 | -118.78277 | 6627 ft | 272 kts | 269° |
| 2026-05-04 07:39 | 33.91710 | -118.80599 | 6873 ft | 283 kts | 269° |
| 2026-05-04 07:39 | 33.91697 | -118.83028 | 7139 ft | 297 kts | 269° |
| 2026-05-04 07:39 | 33.91726 | -118.85579 | 7424 ft | 313 kts | 271° |
| 2026-05-04 07:40 | 33.91825 | -118.88272 | 7690 ft | 331 kts | 272° |
| 2026-05-04 07:40 | 33.91929 | -118.91105 | 7950 ft | 348 kts | 271° |
| 2026-05-04 07:40 | 33.92022 | -118.94097 | 8209 ft | 366 kts | 271° |
| 2026-05-04 07:40 | 33.92112 | -118.97220 | 8545 ft | 380 kts | 271° |
| 2026-05-04 07:41 | 33.92420 | -119.00416 | 9042 ft | 388 kts | 284° |
| 2026-05-04 07:41 | 33.93357 | -119.03402 | 9922 ft | 389 kts | 293° |
| 2026-05-04 07:41 | 33.94608 | -119.06343 | 10394 ft | 399 kts | 297° |
| 2026-05-04 07:41 | 33.96067 | -119.09237 | 10936 ft | 407 kts | 300° |
| 2026-05-04 07:42 | 33.97620 | -119.12117 | 11520 ft | 413 kts | 300° |
| 2026-05-04 07:42 | 33.99158 | -119.15057 | 12148 ft | 417 kts | 299° |
| 2026-05-04 07:42 | 34.00898 | -119.17884 | 12761 ft | 425 kts | 310° |
| 2026-05-04 07:42 | 34.03072 | -119.20342 | 13380 ft | 431 kts | 316° |
| 2026-05-04 07:43 | 34.05422 | -119.22598 | 14077 ft | 434 kts | 320° |
| 2026-05-04 07:43 | 34.07878 | -119.24726 | 14721 ft | 437 kts | 321° |
| 2026-05-04 07:43 | 34.10375 | -119.26802 | 15333 ft | 440 kts | 321° |
| 2026-05-04 07:43 | 34.12911 | -119.28932 | 15936 ft | 442 kts | 321° |
| 2026-05-04 07:44 | 34.15434 | -119.31076 | 16530 ft | 445 kts | 321° |
| 2026-05-04 07:44 | 34.17979 | -119.33229 | 17051 ft | 449 kts | 320° |
| 2026-05-04 07:44 | 34.20523 | -119.35409 | 17721 ft | 448 kts | 320° |
| 2026-05-04 07:44 | 34.23051 | -119.37588 | 18549 ft | 442 kts | 319° |
| 2026-05-04 07:45 | 34.25527 | -119.39729 | 19550 ft | 433 kts | 319° |
| 2026-05-04 07:45 | 34.27958 | -119.41834 | 20328 ft | 430 kts | 318° |
| 2026-05-04 07:45 | 34.30404 | -119.43955 | 20776 ft | 434 kts | 317° |
| 2026-05-04 07:45 | 34.32862 | -119.46088 | 21239 ft | 437 kts | 317° |
| 2026-05-04 07:46 | 34.35341 | -119.48240 | 21711 ft | 439 kts | 317° |
| 2026-05-04 07:46 | 34.37828 | -119.50399 | 22216 ft | 440 kts | 317° |
| 2026-05-04 07:46 | 34.40276 | -119.52620 | 22661 ft | 438 kts | 311° |
| 2026-05-04 07:46 | 34.42462 | -119.55158 | 23072 ft | 436 kts | 307° |
| 2026-05-04 07:47 | 34.44510 | -119.57855 | 23615 ft | 432 kts | 304° |
| 2026-05-04 07:47 | 34.46466 | -119.60616 | 24055 ft | 434 kts | 302° |
| 2026-05-04 07:47 | 34.48400 | -119.63433 | 24511 ft | 435 kts | 302° |
| 2026-05-04 07:49 | 34.62198 | -119.83290 | 27386 ft | 445 kts | 301° |
| 2026-05-04 07:49 | 34.64205 | -119.86148 | 27802 ft | 446 kts | 302° |
| 2026-05-04 07:49 | 34.66231 | -119.89015 | 28106 ft | 447 kts | 302° |
| 2026-05-04 07:50 | 34.68251 | -119.91883 | 28452 ft | 447 kts | 301° |
| 2026-05-04 07:50 | 34.70272 | -119.94764 | 28747 ft | 448 kts | 301° |
| 2026-05-04 07:50 | 34.72299 | -119.97661 | 28911 ft | 452 kts | 301° |
| 2026-05-04 07:50 | 34.74316 | -120.00549 | 29445 ft | 444 kts | 301° |
| 2026-05-04 07:51 | 34.76297 | -120.03389 | 30110 ft | 436 kts | 300° |
| 2026-05-04 07:51 | 34.78249 | -120.06187 | 30518 ft | 433 kts | 300° |
| 2026-05-04 07:51 | 34.80196 | -120.08988 | 30840 ft | 432 kts | 300° |
| 2026-05-04 07:51 | 34.81498 | -120.10859 | 31063 ft | 430 kts | 299° |
| 2026-05-04 07:52 | 34.83428 | -120.13627 | 31450 ft | 427 kts | 299° |
| 2026-05-04 07:52 | 34.85337 | -120.16368 | 31948 ft | 420 kts | 298° |
| 2026-05-04 07:52 | 34.87212 | -120.19078 | 32352 ft | 416 kts | 298° |
| 2026-05-04 07:52 | 34.89069 | -120.21759 | 32714 ft | 413 kts | 298° |
| 2026-05-04 07:53 | 34.90920 | -120.24433 | 32903 ft | 413 kts | 297° |
| 2026-05-04 07:54 | 35.03832 | -120.43131 | 34085 ft | 414 kts | 297° |
| 2026-05-04 07:55 | 35.07570 | -120.48557 | 34080 ft | 422 kts | 298° |
| 2026-05-04 07:55 | 35.09745 | -120.51049 | 34075 ft | 444 kts | 310° |
| 2026-05-04 07:55 | 35.12331 | -120.53202 | 34052 ft | 453 kts | 312° |
| 2026-05-04 07:56 | 35.17649 | -120.57415 | 34082 ft | 458 kts | 313° |
| 2026-05-04 07:56 | 35.23030 | -120.61618 | 34090 ft | 460 kts | 313° |
| 2026-05-04 07:57 | 35.28420 | -120.65839 | 34090 ft | 460 kts | 313° |
| 2026-05-04 07:57 | 35.33810 | -120.70069 | 34092 ft | 460 kts | 313° |
| 2026-05-04 07:58 | 35.39201 | -120.74308 | 34095 ft | 462 kts | 313° |
| 2026-05-04 07:58 | 35.44587 | -120.78549 | 34098 ft | 465 kts | 313° |
| 2026-05-04 07:59 | 35.50046 | -120.82856 | 34101 ft | 469 kts | 314° |
| 2026-05-04 07:59 | 35.55524 | -120.87185 | 34104 ft | 468 kts | 314° |
| 2026-05-04 08:00 | 35.60994 | -120.91514 | 34104 ft | 467 kts | 314° |
| 2026-05-04 08:02 | 35.82914 | -121.08937 | 34096 ft | 470 kts | 314° |
| 2026-05-04 08:02 | 35.88408 | -121.13322 | 34092 ft | 470 kts | 314° |
| 2026-05-04 08:03 | 35.93908 | -121.17718 | 34089 ft | 471 kts | 314° |
| 2026-05-04 08:03 | 35.99409 | -121.22124 | 34087 ft | 473 kts | 314° |
| 2026-05-04 08:04 | 36.04946 | -121.26571 | 34084 ft | 477 kts | 315° |
| 2026-05-04 08:04 | 36.10546 | -121.31068 | 34085 ft | 481 kts | 316° |
| 2026-05-04 08:05 | 36.16177 | -121.35599 | 34083 ft | 484 kts | 316° |
| 2026-05-04 08:05 | 36.21808 | -121.40139 | 34081 ft | 482 kts | 316° |
| 2026-05-04 08:06 | 36.27427 | -121.44677 | 34084 ft | 482 kts | 316° |
| 2026-05-04 08:06 | 36.33049 | -121.49226 | 34083 ft | 483 kts | 316° |
| 2026-05-04 08:08 | 36.55554 | -121.67516 | 34080 ft | 485 kts | 316° |
| 2026-05-04 08:11 | 36.80994 | -121.88348 | 34080 ft | 489 kts | 317° |
| 2026-05-04 08:11 | 36.89523 | -121.95371 | 34079 ft | 490 kts | 318° |
| 2026-05-04 08:12 | 36.95236 | -122.00085 | 34076 ft | 492 kts | 319° |
| 2026-05-04 08:12 | 37.00927 | -122.04790 | 34073 ft | 496 kts | 320° |
| 2026-05-04 08:13 | 37.06685 | -122.09560 | 34075 ft | 498 kts | 321° |
| 2026-05-04 08:13 | 37.12054 | -122.14015 | 34068 ft | 499 kts | 321° |
| 2026-05-04 08:14 | 37.17851 | -122.18833 | 34064 ft | 500 kts | 321° |
| 2026-05-04 08:16 | 37.40916 | -122.38097 | 34081 ft | 493 kts | 323° |
| 2026-05-04 08:16 | 37.45697 | -122.42104 | 34030 ft | 495 kts | 323° |
| 2026-05-04 08:17 | 37.51434 | -122.46919 | 34055 ft | 495 kts | 323° |
| 2026-05-04 08:17 | 37.58112 | -122.52545 | 34063 ft | 494 kts | 323° |
| 2026-05-04 08:19 | 37.79979 | -122.71043 | 34052 ft | 495 kts | 324° |
| 2026-05-04 08:20 | 37.85727 | -122.75926 | 34047 ft | 495 kts | 323° |
| 2026-05-04 08:20 | 37.91453 | -122.80801 | 34044 ft | 495 kts | 324° |
| 2026-05-04 08:21 | 37.97162 | -122.85672 | 34046 ft | 495 kts | 324° |
| 2026-05-04 08:21 | 38.02916 | -122.90593 | 34038 ft | 495 kts | 324° |
| 2026-05-04 08:22 | 38.08693 | -122.95535 | 34070 ft | 500 kts | 325° |
| 2026-05-04 08:24 | 38.31773 | -123.15397 | 34044 ft | 501 kts | 327° |
| 2026-05-04 08:24 | 38.37548 | -123.20393 | 34045 ft | 501 kts | 327° |
| 2026-05-04 08:25 | 38.43312 | -123.25388 | 34047 ft | 501 kts | 327° |
| 2026-05-04 08:25 | 38.49077 | -123.30391 | 34047 ft | 501 kts | 327° |
| 2026-05-04 08:27 | 38.72196 | -123.50559 | 34035 ft | 503 kts | 327° |
| 2026-05-04 08:28 | 38.77992 | -123.55599 | 34034 ft | 503 kts | 327° |
| 2026-05-04 08:28 | 38.83765 | -123.60667 | 34037 ft | 503 kts | 327° |
| 2026-05-04 08:29 | 38.89543 | -123.65763 | 34033 ft | 504 kts | 327° |
| 2026-05-04 08:31 | 39.11845 | -123.87854 | 34033 ft | 509 kts | 322° |
| 2026-05-04 08:33 | 39.33506 | -124.11638 | 34034 ft | 513 kts | 323° |
| 2026-05-04 08:35 | 39.55334 | -124.35721 | 34040 ft | 515 kts | 323° |
| 2026-05-04 08:35 | 39.60778 | -124.41767 | 34040 ft | 515 kts | 323° |
| 2026-05-04 08:37 | 39.79772 | -124.62962 | 34043 ft | 514 kts | 323° |
| 2026-05-04 08:38 | 39.85223 | -124.69075 | 34044 ft | 514 kts | 323° |
| 2026-05-04 08:38 | 39.90633 | -124.75154 | 34044 ft | 514 kts | 322° |
| 2026-05-04 08:40 | 40.12239 | -124.99567 | 34046 ft | 511 kts | 322° |
| 2026-05-04 08:41 | 40.17609 | -125.05667 | 34046 ft | 511 kts | 322° |
| 2026-05-04 08:41 | 40.22965 | -125.11765 | 34046 ft | 510 kts | 322° |
| 2026-05-04 08:42 | 40.28350 | -125.17910 | 34046 ft | 510 kts | 322° |
| 2026-05-04 08:42 | 40.33704 | -125.24033 | 34046 ft | 510 kts | 322° |
| 2026-05-04 08:43 | 40.39001 | -125.30103 | 34046 ft | 509 kts | 322° |
| 2026-05-04 08:43 | 40.44336 | -125.36230 | 34046 ft | 509 kts | 322° |
| 2026-05-04 08:44 | 40.49675 | -125.42376 | 34045 ft | 509 kts | 322° |
| 2026-05-04 08:46 | 40.70102 | -125.66014 | 34059 ft | 508 kts | 322° |
| 2026-05-04 08:46 | 40.75398 | -125.72176 | 34058 ft | 507 kts | 322° |
| 2026-05-04 08:47 | 40.80707 | -125.78367 | 34059 ft | 506 kts | 322° |
| 2026-05-04 08:47 | 40.85942 | -125.84484 | 34060 ft | 505 kts | 322° |
| 2026-05-04 08:48 | 40.91234 | -125.90682 | 34060 ft | 504 kts | 321° |
| 2026-05-04 08:48 | 40.96481 | -125.96840 | 34059 ft | 503 kts | 321° |
| 2026-05-04 08:49 | 41.01705 | -126.02986 | 34064 ft | 501 kts | 321° |
| 2026-05-04 08:50 | 41.19818 | -126.24399 | 34069 ft | 497 kts | 321° |
| 2026-05-04 08:51 | 41.24963 | -126.30513 | 34069 ft | 496 kts | 321° |
| 2026-05-04 08:51 | 41.30099 | -126.36627 | 34068 ft | 495 kts | 321° |
| 2026-05-04 08:52 | 41.35226 | -126.42746 | 34069 ft | 495 kts | 321° |
| 2026-05-04 08:52 | 41.40345 | -126.48868 | 34068 ft | 494 kts | 321° |
| 2026-05-04 08:54 | 41.60756 | -126.73394 | 34047 ft | 493 kts | 321° |
| 2026-05-04 08:55 | 41.65834 | -126.79551 | 34046 ft | 493 kts | 321° |
| 2026-05-04 08:55 | 41.70425 | -126.86351 | 34044 ft | 496 kts | 308° |
| 2026-05-04 09:01 | 42.06733 | -127.70741 | 34047 ft | 493 kts | 303° |
| 2026-05-04 09:01 | 42.10121 | -127.78763 | 34047 ft | 493 kts | 303° |
| 2026-05-04 09:02 | 42.13507 | -127.86800 | 34043 ft | 493 kts | 303° |
| 2026-05-04 09:02 | 42.16887 | -127.94845 | 34043 ft | 493 kts | 303° |
| 2026-05-04 09:03 | 42.20260 | -128.02896 | 34042 ft | 493 kts | 303° |
| 2026-05-04 09:03 | 42.23633 | -128.10968 | 34042 ft | 494 kts | 303° |
| 2026-05-04 09:04 | 42.27003 | -128.19056 | 34048 ft | 494 kts | 303° |
| 2026-05-04 09:04 | 42.30343 | -128.27094 | 34049 ft | 494 kts | 303° |
| 2026-05-04 09:05 | 42.33699 | -128.35192 | 34223 ft | 495 kts | 302° |
| 2026-05-04 09:05 | 42.35379 | -128.39256 | 34408 ft | 495 kts | 303° |
| 2026-05-04 09:05 | 42.37061 | -128.43328 | 34514 ft | 496 kts | 303° |
| 2026-05-04 09:05 | 42.38741 | -128.47403 | 34655 ft | 496 kts | 303° |
| 2026-05-04 09:06 | 42.40424 | -128.51490 | 34749 ft | 498 kts | 303° |
| 2026-05-04 09:07 | 42.52224 | -128.80305 | 35024 ft | 502 kts | 303° |
| 2026-05-04 09:08 | 42.53911 | -128.84449 | 35021 ft | 502 kts | 303° |
| 2026-05-04 09:08 | 42.57280 | -128.92741 | 35020 ft | 503 kts | 303° |
| 2026-05-04 09:09 | 42.60651 | -129.01061 | 35021 ft | 503 kts | 303° |
| 2026-05-04 09:09 | 42.64020 | -129.09397 | 35023 ft | 504 kts | 303° |
| 2026-05-04 09:10 | 42.67390 | -129.17765 | 35022 ft | 505 kts | 303° |
| 2026-05-04 09:10 | 42.70752 | -129.26136 | 35022 ft | 505 kts | 303° |
| 2026-05-04 09:11 | 42.74134 | -129.34582 | 35022 ft | 505 kts | 303° |
| 2026-05-04 09:11 | 42.77465 | -129.42924 | 35022 ft | 505 kts | 303° |
| 2026-05-04 09:12 | 42.80839 | -129.51396 | 35023 ft | 506 kts | 303° |
| 2026-05-04 09:14 | 42.94197 | -129.85142 | 35024 ft | 508 kts | 303° |
| 2026-05-04 09:14 | 42.97525 | -129.93661 | 35024 ft | 509 kts | 303° |
| 2026-05-04 09:15 | 43.01169 | -130.01988 | 35025 ft | 505 kts | 311° |
| 2026-05-04 09:15 | 43.05434 | -130.09487 | 35024 ft | 501 kts | 315° |
| 2026-05-04 09:17 | 43.25197 | -130.42957 | 35026 ft | 503 kts | 315° |
| 2026-05-04 09:18 | 43.29591 | -130.50433 | 35028 ft | 503 kts | 315° |
| 2026-05-04 09:18 | 43.33963 | -130.57928 | 35027 ft | 503 kts | 315° |
| 2026-05-04 09:19 | 43.38324 | -130.65438 | 35028 ft | 503 kts | 314° |
| 2026-05-04 09:19 | 43.42514 | -130.72678 | 35026 ft | 503 kts | 314° |
| 2026-05-04 09:20 | 43.46874 | -130.80233 | 35029 ft | 503 kts | 314° |
| 2026-05-04 09:20 | 43.51221 | -130.87786 | 35029 ft | 503 kts | 314° |
| 2026-05-04 09:21 | 43.55562 | -130.95348 | 35030 ft | 503 kts | 314° |
| 2026-05-04 09:21 | 43.59890 | -131.02907 | 35031 ft | 502 kts | 314° |
| 2026-05-04 09:22 | 43.64213 | -131.10478 | 35042 ft | 502 kts | 314° |
| 2026-05-04 09:22 | 43.67807 | -131.16787 | 35046 ft | 502 kts | 314° |
| 2026-05-04 09:23 | 43.72850 | -131.25661 | 35046 ft | 502 kts | 314° |
| 2026-05-04 09:23 | 43.76465 | -131.32040 | 35046 ft | 503 kts | 314° |
| 2026-05-04 09:25 | 43.93622 | -131.62506 | 35049 ft | 503 kts | 314° |
| 2026-05-04 09:26 | 43.97912 | -131.70175 | 35050 ft | 503 kts | 314° |
| 2026-05-04 09:26 | 44.02197 | -131.77854 | 35050 ft | 503 kts | 314° |
| 2026-05-04 09:27 | 44.06482 | -131.85554 | 35069 ft | 503 kts | 314° |
| 2026-05-04 09:27 | 44.10760 | -131.93260 | 35076 ft | 503 kts | 314° |
| 2026-05-04 09:28 | 44.15034 | -132.00981 | 35077 ft | 503 kts | 314° |
| 2026-05-04 09:28 | 44.19304 | -132.08715 | 35078 ft | 503 kts | 314° |
| 2026-05-04 09:29 | 44.23567 | -132.16458 | 35073 ft | 503 kts | 313° |
| 2026-05-04 09:29 | 44.27821 | -132.24205 | 35024 ft | 503 kts | 313° |
| 2026-05-04 09:30 | 44.32070 | -132.31963 | 35023 ft | 502 kts | 313° |
| 2026-05-04 09:30 | 44.36300 | -132.39707 | 35023 ft | 502 kts | 313° |
| 2026-05-04 09:31 | 44.40529 | -132.47470 | 35024 ft | 501 kts | 313° |
| 2026-05-04 09:31 | 44.44745 | -132.55229 | 35024 ft | 500 kts | 313° |
| 2026-05-04 09:32 | 44.48949 | -132.62989 | 35025 ft | 500 kts | 312° |
| 2026-05-04 09:34 | 44.65663 | -132.94046 | 35026 ft | 498 kts | 311° |
| 2026-05-04 09:34 | 44.69819 | -133.01819 | 35026 ft | 497 kts | 311° |
| 2026-05-04 09:35 | 44.73967 | -133.09599 | 35030 ft | 497 kts | 311° |
| 2026-05-04 09:35 | 44.78075 | -133.17327 | 35031 ft | 497 kts | 311° |
| 2026-05-04 09:37 | 44.94621 | -133.48657 | 35034 ft | 496 kts | 310° |
| 2026-05-04 09:38 | 44.98723 | -133.56479 | 35035 ft | 496 kts | 310° |
| 2026-05-04 09:38 | 45.02801 | -133.64276 | 35038 ft | 496 kts | 310° |
| 2026-05-04 09:39 | 45.06893 | -133.72121 | 35110 ft | 496 kts | 310° |
| 2026-05-04 09:39 | 45.10987 | -133.79989 | 35116 ft | 496 kts | 310° |
| 2026-05-04 09:40 | 45.15067 | -133.87853 | 35118 ft | 495 kts | 309° |
| 2026-05-04 09:40 | 45.19144 | -133.95735 | 35120 ft | 496 kts | 309° |
| 2026-05-04 09:42 | 45.35362 | -134.27302 | 35121 ft | 495 kts | 308° |
| 2026-05-04 09:43 | 45.39401 | -134.35218 | 35123 ft | 494 kts | 308° |
| 2026-05-04 09:43 | 45.43435 | -134.43147 | 35124 ft | 495 kts | 308° |
| 2026-05-04 09:44 | 45.47464 | -134.51086 | 35125 ft | 494 kts | 308° |
| 2026-05-04 09:46 | 45.63510 | -134.82932 | 35131 ft | 494 kts | 307° |
| 2026-05-04 09:46 | 45.67501 | -134.90910 | 35132 ft | 494 kts | 307° |
| 2026-05-04 09:47 | 45.71491 | -134.98907 | 35134 ft | 493 kts | 307° |
| 2026-05-04 09:49 | 45.87373 | -135.30967 | 35138 ft | 493 kts | 306° |
| 2026-05-04 09:51 | 46.01179 | -135.59136 | 35139 ft | 492 kts | 306° |
| 2026-05-04 09:51 | 46.05113 | -135.67214 | 35141 ft | 493 kts | 305° |
| 2026-05-04 09:52 | 46.09040 | -135.75300 | 35140 ft | 492 kts | 305° |
| 2026-05-04 09:52 | 46.12956 | -135.83389 | 35133 ft | 492 kts | 305° |
| 2026-05-04 09:53 | 46.16872 | -135.91499 | 35134 ft | 493 kts | 305° |
| 2026-05-04 09:53 | 46.20781 | -135.99620 | 35135 ft | 493 kts | 305° |
| 2026-05-04 09:54 | 46.24682 | -136.07745 | 35136 ft | 493 kts | 305° |
| 2026-05-04 09:54 | 46.28582 | -136.15895 | 35145 ft | 492 kts | 305° |
| 2026-05-04 09:55 | 46.32469 | -136.24039 | 35146 ft | 493 kts | 305° |
| 2026-05-04 09:55 | 46.36380 | -136.32259 | 35147 ft | 493 kts | 304° |
| 2026-05-04 09:56 | 46.40244 | -136.40402 | 35148 ft | 493 kts | 304° |
| 2026-05-04 09:56 | 46.44126 | -136.48608 | 35149 ft | 494 kts | 304° |
| 2026-05-04 09:57 | 46.48008 | -136.56838 | 35150 ft | 497 kts | 304° |
| 2026-05-04 09:57 | 46.51916 | -136.65148 | 35151 ft | 501 kts | 304° |
| 2026-05-04 09:58 | 46.55840 | -136.73517 | 35151 ft | 501 kts | 304° |
| 2026-05-04 09:58 | 46.59753 | -136.81889 | 35152 ft | 500 kts | 304° |
| 2026-05-04 10:00 | 46.75367 | -137.15542 | 35155 ft | 502 kts | 303° |
| 2026-05-04 10:04 | 47.01879 | -137.73637 | 35132 ft | 503 kts | 303° |
| 2026-05-04 10:04 | 47.05733 | -137.82184 | 35130 ft | 503 kts | 302° |
| 2026-05-04 10:05 | 47.09589 | -137.90761 | 35131 ft | 503 kts | 302° |
| 2026-05-04 10:05 | 47.13440 | -137.99356 | 35132 ft | 504 kts | 302° |
| 2026-05-04 10:06 | 47.17292 | -138.07976 | 35134 ft | 506 kts | 302° |
| 2026-05-04 10:06 | 47.21144 | -138.16628 | 35133 ft | 506 kts | 301° |
| 2026-05-04 10:08 | 47.34594 | -138.47048 | 35137 ft | 507 kts | 301° |
| 2026-05-04 10:08 | 47.38426 | -138.55777 | 35137 ft | 507 kts | 301° |
| 2026-05-04 10:09 | 47.42257 | -138.64533 | 35139 ft | 507 kts | 301° |
| 2026-05-04 10:09 | 47.46080 | -138.73294 | 35139 ft | 507 kts | 301° |
| 2026-05-04 10:10 | 47.49898 | -138.82075 | 35141 ft | 508 kts | 301° |
| 2026-05-04 10:10 | 47.53715 | -138.90881 | 35141 ft | 508 kts | 301° |
| 2026-05-04 10:11 | 47.57521 | -138.99691 | 35142 ft | 508 kts | 300° |
| 2026-05-04 10:11 | 47.61326 | -139.08527 | 35143 ft | 509 kts | 300° |
| 2026-05-04 10:12 | 47.65127 | -139.17382 | 35144 ft | 509 kts | 300° |
| 2026-05-04 10:12 | 47.68926 | -139.26261 | 35145 ft | 510 kts | 300° |
| 2026-05-04 10:13 | 47.72722 | -139.35164 | 35146 ft | 511 kts | 300° |
| 2026-05-04 10:13 | 47.76518 | -139.44094 | 35146 ft | 511 kts | 299° |
| 2026-05-04 10:14 | 47.80313 | -139.53051 | 35147 ft | 512 kts | 299° |
| 2026-05-04 10:16 | 47.95470 | -139.89091 | 35118 ft | 514 kts | 298° |
| 2026-05-04 10:16 | 47.99259 | -139.98136 | 35116 ft | 514 kts | 301° |
| 2026-05-04 10:17 | 48.03729 | -140.06504 | 35120 ft | 517 kts | 308° |
| 2026-05-04 10:19 | 48.23000 | -140.38732 | 35115 ft | 519 kts | 309° |
| 2026-05-04 10:19 | 48.27833 | -140.46774 | 35116 ft | 519 kts | 309° |
| 2026-05-04 10:20 | 48.32646 | -140.54868 | 35116 ft | 520 kts | 308° |
| 2026-05-04 10:20 | 48.37450 | -140.63010 | 35117 ft | 520 kts | 308° |
| 2026-05-04 10:21 | 48.42237 | -140.71164 | 35118 ft | 521 kts | 308° |
| 2026-05-04 10:21 | 48.47030 | -140.79358 | 35118 ft | 521 kts | 308° |
| 2026-05-04 10:22 | 48.54243 | -140.91741 | 35166 ft | 522 kts | 307° |
| 2026-05-04 10:23 | 48.59038 | -141.00006 | 35168 ft | 523 kts | 307° |
| 2026-05-04 10:25 | 48.78149 | -141.33206 | 35175 ft | 523 kts | 306° |
| 2026-05-04 10:25 | 48.82948 | -141.41610 | 35175 ft | 524 kts | 306° |
| 2026-05-04 10:26 | 48.87748 | -141.50043 | 35176 ft | 524 kts | 306° |
| 2026-05-04 10:26 | 48.92481 | -141.58385 | 35178 ft | 525 kts | 306° |
| 2026-05-04 10:27 | 48.97275 | -141.66860 | 35179 ft | 525 kts | 306° |
| 2026-05-04 10:27 | 49.02033 | -141.75298 | 35180 ft | 525 kts | 306° |
| 2026-05-04 10:28 | 49.06784 | -141.83752 | 35180 ft | 526 kts | 306° |
| 2026-05-04 10:28 | 49.11538 | -141.92239 | 35181 ft | 526 kts | 305° |
| 2026-05-04 10:29 | 49.16288 | -142.00745 | 35182 ft | 526 kts | 305° |
| 2026-05-04 10:29 | 49.21051 | -142.09298 | 35183 ft | 530 kts | 304° |
| 2026-05-04 10:30 | 49.25815 | -142.17887 | 35184 ft | 530 kts | 304° |
| 2026-05-04 10:30 | 49.30552 | -142.26454 | 35185 ft | 530 kts | 304° |
| 2026-05-04 10:31 | 49.35334 | -142.35131 | 35172 ft | 530 kts | 304° |
| 2026-05-04 10:32 | 49.51945 | -142.65492 | 35159 ft | 531 kts | 303° |
| 2026-05-04 10:33 | 49.56682 | -142.74216 | 35160 ft | 531 kts | 303° |
| 2026-05-04 10:33 | 49.61417 | -142.82964 | 35161 ft | 531 kts | 303° |
| 2026-05-04 10:34 | 49.66145 | -142.91729 | 35163 ft | 532 kts | 303° |
| 2026-05-04 10:34 | 49.70079 | -142.99044 | 35161 ft | 532 kts | 303° |
| 2026-05-04 10:35 | 49.74810 | -143.07868 | 35162 ft | 533 kts | 303° |
| 2026-05-04 10:35 | 49.79537 | -143.16715 | 35163 ft | 534 kts | 302° |
| 2026-05-04 10:36 | 49.84300 | -143.25659 | 35164 ft | 535 kts | 302° |
| 2026-05-04 10:36 | 49.89022 | -143.34558 | 35165 ft | 535 kts | 302° |
| 2026-05-04 10:37 | 49.93750 | -143.43496 | 35166 ft | 536 kts | 302° |
| 2026-05-04 10:37 | 49.98474 | -143.52459 | 35167 ft | 537 kts | 302° |
| 2026-05-04 10:39 | 50.15014 | -143.84082 | 35171 ft | 537 kts | 301° |
| 2026-05-04 10:40 | 50.19684 | -143.93081 | 35173 ft | 537 kts | 301° |
| 2026-05-04 10:40 | 50.24380 | -144.02161 | 35173 ft | 537 kts | 301° |
| 2026-05-04 10:41 | 50.29068 | -144.11257 | 35174 ft | 537 kts | 301° |
| 2026-05-04 10:41 | 50.33752 | -144.20378 | 35175 ft | 537 kts | 301° |
| 2026-05-04 10:42 | 50.38428 | -144.29514 | 35177 ft | 539 kts | 301° |
| 2026-05-04 10:42 | 50.43116 | -144.38706 | 35178 ft | 539 kts | 301° |
| 2026-05-04 10:43 | 50.47822 | -144.47966 | 35178 ft | 539 kts | 300° |
| 2026-05-04 10:45 | 50.66508 | -144.85064 | 35183 ft | 544 kts | 300° |
| 2026-05-04 10:45 | 50.71222 | -144.94505 | 35183 ft | 545 kts | 300° |
| 2026-05-04 10:46 | 50.75901 | -145.03912 | 35183 ft | 545 kts | 300° |
| 2026-05-04 10:46 | 50.80556 | -145.13305 | 35185 ft | 547 kts | 300° |
| 2026-05-04 10:47 | 50.85270 | -145.22851 | 35186 ft | 547 kts | 299° |
| 2026-05-04 10:47 | 50.89948 | -145.32358 | 35187 ft | 547 kts | 299° |
| 2026-05-04 10:49 | 51.08648 | -145.70717 | 35291 ft | 549 kts | 299° |
| 2026-05-04 10:50 | 51.13299 | -145.80347 | 35565 ft | 546 kts | 299° |
| 2026-05-04 10:51 | 51.29507 | -146.14184 | 36172 ft | 550 kts | 298° |
| 2026-05-04 10:52 | 51.31814 | -146.19037 | 36173 ft | 549 kts | 298° |
| 2026-05-04 10:52 | 51.36429 | -146.28772 | 36174 ft | 548 kts | 298° |
| 2026-05-04 10:54 | 51.52557 | -146.63082 | 36062 ft | 550 kts | 298° |
| 2026-05-04 10:54 | 51.54852 | -146.68002 | 36063 ft | 550 kts | 298° |
| 2026-05-04 10:56 | 51.73150 | -147.07564 | 36062 ft | 552 kts | 297° |
| 2026-05-04 10:57 | 51.77756 | -147.17620 | 36062 ft | 553 kts | 297° |
| 2026-05-04 10:57 | 51.82312 | -147.27603 | 36061 ft | 553 kts | 297° |
| 2026-05-04 10:58 | 51.86877 | -147.37647 | 36062 ft | 554 kts | 297° |
| 2026-05-04 10:58 | 51.91402 | -147.47643 | 36062 ft | 555 kts | 297° |
| 2026-05-04 10:59 | 51.95996 | -147.57828 | 36061 ft | 556 kts | 297° |
| 2026-05-04 10:59 | 52.00556 | -147.67980 | 36052 ft | 556 kts | 297° |
| 2026-05-04 11:00 | 52.05099 | -147.78133 | 36051 ft | 555 kts | 297° |
| 2026-05-04 11:02 | 52.23171 | -148.18927 | 36051 ft | 555 kts | 297° |
| 2026-05-04 11:05 | 52.56642 | -148.96239 | 36048 ft | 555 kts | 297° |
| 2026-05-04 11:06 | 52.60322 | -149.04882 | 36047 ft | 555 kts | 297° |
| 2026-05-04 11:06 | 52.64747 | -149.15316 | 36047 ft | 556 kts | 297° |
| 2026-05-04 11:10 | 52.95722 | -149.89539 | 36029 ft | 561 kts | 296° |
| 2026-05-04 11:12 | 53.07406 | -150.29543 | 36028 ft | 547 kts | 283° |
| 2026-05-04 11:12 | 53.08826 | -150.35409 | 36028 ft | 546 kts | 283° |
| 2026-05-04 11:12 | 53.11669 | -150.47122 | 36028 ft | 546 kts | 283° |
| 2026-05-04 11:13 | 53.14565 | -150.58826 | 36026 ft | 547 kts | 284° |
| 2026-05-04 11:13 | 53.17514 | -150.70534 | 36028 ft | 549 kts | 284° |
| 2026-05-04 11:14 | 53.18007 | -150.72523 | 36027 ft | 549 kts | 284° |
| 2026-05-04 11:16 | 53.31859 | -151.29726 | 36025 ft | 549 kts | 284° |
| 2026-05-04 11:16 | 53.34684 | -151.41604 | 36024 ft | 549 kts | 283° |
| 2026-05-04 11:17 | 53.37475 | -151.53408 | 35965 ft | 549 kts | 283° |
| 2026-05-04 11:19 | 53.48625 | -152.01222 | 35944 ft | 549 kts | 283° |
| 2026-05-04 11:19 | 53.51374 | -152.13183 | 35943 ft | 549 kts | 283° |
| 2026-05-04 11:20 | 53.54115 | -152.25167 | 35943 ft | 549 kts | 283° |
| 2026-05-04 11:20 | 53.56842 | -152.37163 | 35942 ft | 549 kts | 283° |
| 2026-05-04 11:22 | 53.67643 | -152.85359 | 35931 ft | 550 kts | 283° |
| 2026-05-04 11:23 | 53.70318 | -152.97465 | 35930 ft | 550 kts | 283° |
| 2026-05-04 11:25 | 53.79583 | -153.39969 | 35929 ft | 551 kts | 283° |
| 2026-05-04 11:25 | 53.82206 | -153.52160 | 35929 ft | 552 kts | 283° |
| 2026-05-04 11:27 | 53.93886 | -154.07366 | 35928 ft | 553 kts | 283° |
| 2026-05-04 11:28 | 53.96444 | -154.19659 | 35931 ft | 553 kts | 283° |
| 2026-05-04 11:28 | 53.99008 | -154.32058 | 35887 ft | 552 kts | 283° |
| 2026-05-04 11:29 | 54.01539 | -154.44376 | 35885 ft | 551 kts | 282° |
| 2026-05-04 11:29 | 54.04050 | -154.56669 | 35884 ft | 550 kts | 282° |
| 2026-05-04 11:33 | 54.21112 | -155.42316 | 35880 ft | 542 kts | 283° |
| 2026-05-04 11:33 | 54.23488 | -155.54546 | 35880 ft | 542 kts | 283° |
| 2026-05-04 11:34 | 54.25848 | -155.66774 | 35880 ft | 542 kts | 283° |
| 2026-05-04 11:34 | 54.28216 | -155.79123 | 35879 ft | 542 kts | 283° |
| 2026-05-04 11:35 | 54.30547 | -155.91359 | 35878 ft | 541 kts | 283° |
| 2026-05-04 11:35 | 54.32889 | -156.03727 | 35877 ft | 541 kts | 283° |
| 2026-05-04 11:36 | 54.35197 | -156.16003 | 35876 ft | 541 kts | 282° |
| 2026-05-04 11:36 | 54.37489 | -156.28267 | 35884 ft | 539 kts | 282° |
| 2026-05-04 11:37 | 54.39381 | -156.38454 | 35884 ft | 539 kts | 282° |
| 2026-05-04 11:37 | 54.41661 | -156.50805 | 35884 ft | 539 kts | 282° |
| 2026-05-04 11:38 | 54.43908 | -156.63055 | 35883 ft | 537 kts | 282° |
| 2026-05-04 11:38 | 54.46135 | -156.75280 | 35882 ft | 535 kts | 282° |
| 2026-05-04 11:39 | 54.48343 | -156.87481 | 35881 ft | 535 kts | 281° |
| 2026-05-04 11:41 | 54.55983 | -157.30335 | 35879 ft | 532 kts | 281° |
| 2026-05-04 11:41 | 54.58122 | -157.42518 | 35883 ft | 531 kts | 281° |
| 2026-05-04 11:42 | 54.60265 | -157.54811 | 35885 ft | 531 kts | 281° |
| 2026-05-04 11:42 | 54.62379 | -157.67014 | 35878 ft | 531 kts | 281° |
| 2026-05-04 11:43 | 54.64479 | -157.79222 | 35877 ft | 530 kts | 281° |
| 2026-05-04 11:43 | 54.66565 | -157.91434 | 35877 ft | 530 kts | 281° |
| 2026-05-04 11:44 | 54.68638 | -158.03653 | 35878 ft | 528 kts | 281° |
| 2026-05-04 11:44 | 54.70683 | -158.15790 | 35876 ft | 526 kts | 281° |
| 2026-05-04 11:45 | 54.72717 | -158.27947 | 35876 ft | 526 kts | 281° |
| 2026-05-04 11:45 | 54.74737 | -158.40107 | 35871 ft | 525 kts | 281° |
| 2026-05-04 11:46 | 54.76741 | -158.52251 | 35831 ft | 524 kts | 281° |
| 2026-05-04 11:46 | 54.78729 | -158.64386 | 35829 ft | 523 kts | 280° |
| 2026-05-04 11:47 | 54.80708 | -158.76553 | 35827 ft | 526 kts | 280° |
| 2026-05-04 11:47 | 54.82679 | -158.88757 | 35825 ft | 525 kts | 280° |
| 2026-05-04 11:48 | 54.84635 | -159.00956 | 35823 ft | 524 kts | 280° |
| 2026-05-04 11:48 | 54.86572 | -159.13122 | 35821 ft | 523 kts | 280° |
| 2026-05-04 11:49 | 54.88497 | -159.25306 | 35820 ft | 522 kts | 280° |
| 2026-05-04 11:49 | 54.90403 | -159.37448 | 35817 ft | 521 kts | 280° |
| 2026-05-04 11:50 | 54.92340 | -159.49678 | 35815 ft | 521 kts | 281° |
| 2026-05-04 11:50 | 54.94253 | -159.61817 | 35813 ft | 520 kts | 279° |
| 2026-05-04 11:51 | 54.96093 | -159.73972 | 35811 ft | 519 kts | 279° |
| 2026-05-04 11:51 | 54.97906 | -159.86038 | 35809 ft | 518 kts | 279° |
| 2026-05-04 11:52 | 54.99739 | -159.98248 | 35807 ft | 517 kts | 279° |
| 2026-05-04 11:52 | 55.01212 | -160.10368 | 35805 ft | 512 kts | 275° |
| 2026-05-04 11:53 | 55.02423 | -160.22570 | 35804 ft | 510 kts | 275° |
| 2026-05-04 11:53 | 55.03650 | -160.34762 | 35803 ft | 511 kts | 275° |
| 2026-05-04 11:55 | 55.08713 | -160.83479 | 35814 ft | 510 kts | 275° |
| 2026-05-04 11:56 | 55.09952 | -160.95686 | 35817 ft | 510 kts | 275° |
| 2026-05-04 11:56 | 55.11166 | -161.07865 | 35822 ft | 509 kts | 275° |
| 2026-05-04 11:57 | 55.12374 | -161.20129 | 35827 ft | 509 kts | 275° |
| 2026-05-04 11:57 | 55.13560 | -161.32319 | 35845 ft | 508 kts | 275° |
| 2026-05-04 11:58 | 55.14739 | -161.44565 | 35885 ft | 508 kts | 275° |
| 2026-05-04 11:58 | 55.15892 | -161.56680 | 35891 ft | 508 kts | 275° |
| 2026-05-04 11:59 | 55.17039 | -161.68857 | 35886 ft | 507 kts | 275° |
| 2026-05-04 11:59 | 55.18173 | -161.81031 | 35885 ft | 507 kts | 275° |
| 2026-05-04 12:00 | 55.19302 | -161.93299 | 35880 ft | 507 kts | 275° |
| 2026-05-04 12:00 | 55.20409 | -162.05470 | 35876 ft | 506 kts | 275° |
| 2026-05-04 12:01 | 55.21502 | -162.17615 | 35871 ft | 505 kts | 275° |
| 2026-05-04 12:02 | 55.25255 | -162.60169 | 35902 ft | 505 kts | 275° |
| 2026-05-04 12:03 | 55.26276 | -162.72335 | 35908 ft | 505 kts | 275° |
| 2026-05-04 12:03 | 55.26960 | -162.84551 | 35910 ft | 503 kts | 269° |
| 2026-05-04 12:04 | 55.27147 | -162.96791 | 35911 ft | 501 kts | 268° |
| 2026-05-04 12:04 | 55.27290 | -163.08988 | 35910 ft | 501 kts | 269° |
| 2026-05-04 12:05 | 55.27453 | -163.21200 | 35911 ft | 501 kts | 269° |
| 2026-05-04 12:05 | 55.27611 | -163.33433 | 35912 ft | 501 kts | 269° |
| 2026-05-04 12:06 | 55.27843 | -163.45647 | 35914 ft | 501 kts | 270° |
| 2026-05-04 12:06 | 55.28098 | -163.57866 | 35915 ft | 501 kts | 270° |
| 2026-05-04 12:07 | 55.28268 | -163.68104 | 35917 ft | 501 kts | 269° |
| 2026-05-04 12:07 | 55.28443 | -163.80324 | 35919 ft | 501 kts | 269° |
| 2026-05-04 12:08 | 55.28600 | -163.92631 | 35921 ft | 501 kts | 269° |
| 2026-05-04 12:08 | 55.28739 | -164.04770 | 35924 ft | 501 kts | 269° |
| 2026-05-04 12:09 | 55.28867 | -164.16977 | 35926 ft | 500 kts | 269° |
| 2026-05-04 12:09 | 55.28982 | -164.29250 | 35930 ft | 500 kts | 269° |
| 2026-05-04 12:10 | 55.29085 | -164.41441 | 35934 ft | 500 kts | 269° |
| 2026-05-04 12:10 | 55.29175 | -164.53641 | 35937 ft | 500 kts | 269° |
| 2026-05-04 12:11 | 55.29253 | -164.65827 | 35951 ft | 499 kts | 269° |
| 2026-05-04 12:11 | 55.29319 | -164.78001 | 35956 ft | 499 kts | 269° |
| 2026-05-04 12:12 | 55.29373 | -164.90183 | 35962 ft | 499 kts | 269° |
| 2026-05-04 12:12 | 55.29414 | -165.02366 | 35967 ft | 499 kts | 269° |
| 2026-05-04 12:14 | 55.29459 | -165.51005 | 35987 ft | 498 kts | 269° |
| 2026-05-04 12:15 | 55.29440 | -165.63146 | 35994 ft | 498 kts | 269° |
| 2026-05-04 12:15 | 55.29409 | -165.75309 | 35998 ft | 498 kts | 269° |
| 2026-05-04 12:16 | 55.29366 | -165.87446 | 36003 ft | 498 kts | 269° |
| 2026-05-04 12:16 | 55.29311 | -165.99681 | 36007 ft | 498 kts | 269° |
| 2026-05-04 12:17 | 55.29243 | -166.11743 | 36011 ft | 498 kts | 269° |
| 2026-05-04 12:17 | 55.29164 | -166.23874 | 36016 ft | 497 kts | 269° |
| 2026-05-04 12:18 | 55.29073 | -166.36052 | 36040 ft | 496 kts | 269° |
| 2026-05-04 12:18 | 55.28970 | -166.48171 | 36046 ft | 496 kts | 269° |
| 2026-05-04 12:19 | 55.28855 | -166.60270 | 36077 ft | 496 kts | 269° |
| 2026-05-04 12:19 | 55.28728 | -166.72437 | 36087 ft | 496 kts | 269° |
| 2026-05-04 12:20 | 55.28589 | -166.84527 | 36089 ft | 495 kts | 269° |
| 2026-05-04 12:20 | 55.28438 | -166.96606 | 36091 ft | 495 kts | 269° |
| 2026-05-04 12:21 | 55.28276 | -167.08648 | 36092 ft | 494 kts | 269° |
| 2026-05-04 12:21 | 55.28102 | -167.20712 | 36092 ft | 494 kts | 269° |
| 2026-05-04 12:22 | 55.27916 | -167.32756 | 36064 ft | 494 kts | 269° |
| 2026-05-04 12:22 | 55.27719 | -167.44796 | 36066 ft | 494 kts | 269° |
| 2026-05-04 12:23 | 55.27510 | -167.56824 | 36070 ft | 494 kts | 269° |
| 2026-05-04 12:23 | 55.27288 | -167.68870 | 36073 ft | 494 kts | 269° |
| 2026-05-04 12:24 | 55.27055 | -167.80902 | 36077 ft | 494 kts | 269° |
| 2026-05-04 12:24 | 55.26810 | -167.92937 | 36080 ft | 494 kts | 269° |
| 2026-05-04 12:25 | 55.26553 | -168.04965 | 36084 ft | 493 kts | 269° |
| 2026-05-04 12:25 | 55.26285 | -168.16981 | 36087 ft | 491 kts | 269° |
| 2026-05-04 12:26 | 55.26007 | -168.28936 | 36116 ft | 491 kts | 269° |
| 2026-05-04 12:26 | 55.25716 | -168.40907 | 36120 ft | 491 kts | 269° |
| 2026-05-04 12:27 | 55.25414 | -168.52863 | 36123 ft | 491 kts | 269° |
| 2026-05-04 12:27 | 55.25101 | -168.64794 | 36125 ft | 490 kts | 269° |
| 2026-05-04 12:28 | 55.24777 | -168.76722 | 36127 ft | 490 kts | 269° |
| 2026-05-04 12:28 | 55.24440 | -168.88637 | 36129 ft | 489 kts | 269° |
| 2026-05-04 12:29 | 55.24096 | -169.00451 | 36131 ft | 489 kts | 269° |
| 2026-05-04 12:29 | 55.23738 | -169.12332 | 36133 ft | 488 kts | 269° |
| 2026-05-04 12:30 | 55.23369 | -169.24185 | 36134 ft | 487 kts | 269° |
| 2026-05-04 12:30 | 55.22988 | -169.36031 | 36136 ft | 487 kts | 269° |
| 2026-05-04 12:31 | 55.22597 | -169.47874 | 36137 ft | 487 kts | 268° |
| 2026-05-04 12:31 | 55.22195 | -169.59686 | 36138 ft | 486 kts | 268° |
| 2026-05-04 12:32 | 55.21570 | -169.77405 | 36152 ft | 486 kts | 268° |
| 2026-05-04 12:33 | 55.21140 | -169.89209 | 36153 ft | 486 kts | 268° |
| 2026-05-04 12:33 | 55.20698 | -170.01020 | 36153 ft | 486 kts | 268° |
| 2026-05-04 12:34 | 55.20245 | -170.12793 | 36154 ft | 484 kts | 268° |
| 2026-05-04 12:34 | 55.19782 | -170.24553 | 36152 ft | 484 kts | 268° |
| 2026-05-04 12:35 | 55.19346 | -170.36322 | 36139 ft | 484 kts | 269° |
| 2026-05-04 12:35 | 55.18890 | -170.48096 | 36139 ft | 484 kts | 268° |
| 2026-05-04 12:36 | 55.18371 | -170.59844 | 36139 ft | 484 kts | 268° |
| 2026-05-04 12:36 | 55.17838 | -170.71588 | 36138 ft | 484 kts | 268° |
| 2026-05-04 12:37 | 55.17303 | -170.83344 | 36137 ft | 485 kts | 268° |
| 2026-05-04 12:37 | 55.16777 | -170.95096 | 36137 ft | 485 kts | 268° |
| 2026-05-04 12:38 | 55.16241 | -171.06854 | 36136 ft | 485 kts | 267° |
| 2026-05-04 12:38 | 55.15684 | -171.18595 | 36135 ft | 484 kts | 267° |
| 2026-05-04 12:39 | 55.15113 | -171.30334 | 36134 ft | 485 kts | 267° |
| 2026-05-04 12:39 | 55.14526 | -171.42077 | 36132 ft | 485 kts | 267° |
| 2026-05-04 12:40 | 55.13985 | -171.53824 | 36131 ft | 485 kts | 268° |
| 2026-05-04 12:40 | 55.13494 | -171.65581 | 36129 ft | 485 kts | 268° |
| 2026-05-04 12:41 | 55.12946 | -171.77315 | 36127 ft | 485 kts | 267° |
| 2026-05-04 12:41 | 55.12368 | -171.89060 | 36127 ft | 485 kts | 267° |
| 2026-05-04 12:42 | 55.11771 | -172.00800 | 36126 ft | 485 kts | 267° |
| 2026-05-04 12:42 | 55.11160 | -172.12527 | 36125 ft | 485 kts | 267° |
| 2026-05-04 12:43 | 55.10541 | -172.24167 | 36124 ft | 484 kts | 267° |
| 2026-05-04 12:43 | 55.09907 | -172.35878 | 36124 ft | 484 kts | 266° |
| 2026-05-04 12:44 | 55.09262 | -172.47589 | 36123 ft | 484 kts | 266° |
| 2026-05-04 12:44 | 55.08605 | -172.59294 | 36122 ft | 485 kts | 266° |
| 2026-05-04 12:45 | 55.08045 | -172.69105 | 36121 ft | 485 kts | 266° |
| 2026-05-04 12:45 | 55.07371 | -172.80750 | 36120 ft | 485 kts | 266° |
| 2026-05-04 12:46 | 55.06682 | -172.92448 | 36119 ft | 485 kts | 266° |
| 2026-05-04 12:46 | 55.05981 | -173.04154 | 36118 ft | 485 kts | 266° |
| 2026-05-04 12:47 | 55.05270 | -173.15837 | 36117 ft | 485 kts | 266° |
| 2026-05-04 12:47 | 55.04547 | -173.27529 | 36104 ft | 485 kts | 266° |
| 2026-05-04 12:48 | 55.03813 | -173.39218 | 36099 ft | 485 kts | 265° |
| 2026-05-04 12:48 | 55.03069 | -173.50890 | 36098 ft | 484 kts | 265° |
| 2026-05-04 12:49 | 55.02312 | -173.62565 | 36097 ft | 485 kts | 265° |
| 2026-05-04 12:49 | 55.01545 | -173.74235 | 36096 ft | 485 kts | 265° |
| 2026-05-04 12:50 | 55.00767 | -173.85889 | 36095 ft | 485 kts | 265° |
| 2026-05-04 12:50 | 54.99977 | -173.97548 | 36094 ft | 485 kts | 265° |
| 2026-05-04 12:51 | 54.99177 | -174.09206 | 36092 ft | 485 kts | 265° |
| 2026-05-04 12:51 | 54.98364 | -174.20869 | 36092 ft | 486 kts | 265° |
| 2026-05-04 12:52 | 54.97539 | -174.32537 | 36079 ft | 486 kts | 265° |
| 2026-05-04 12:52 | 54.96704 | -174.44197 | 36077 ft | 486 kts | 264° |
| 2026-05-04 12:53 | 54.95856 | -174.55861 | 36076 ft | 486 kts | 264° |
| 2026-05-04 12:53 | 54.94998 | -174.67512 | 36074 ft | 486 kts | 264° |
| 2026-05-04 12:54 | 54.94128 | -174.79177 | 36073 ft | 486 kts | 264° |
| 2026-05-04 12:54 | 54.93247 | -174.90827 | 36072 ft | 486 kts | 264° |
| 2026-05-04 12:55 | 54.92354 | -175.02485 | 36071 ft | 487 kts | 264° |
| 2026-05-04 12:55 | 54.91449 | -175.14156 | 36070 ft | 487 kts | 264° |
| 2026-05-04 12:56 | 54.90533 | -175.25812 | 36069 ft | 487 kts | 264° |
| 2026-05-04 12:56 | 54.89604 | -175.37482 | 36067 ft | 488 kts | 264° |
| 2026-05-04 12:57 | 54.88663 | -175.49155 | 36067 ft | 488 kts | 264° |
| 2026-05-04 12:57 | 54.87711 | -175.60832 | 36066 ft | 488 kts | 263° |
| 2026-05-04 12:58 | 54.86748 | -175.72506 | 36065 ft | 489 kts | 263° |
| 2026-05-04 12:58 | 54.85772 | -175.84174 | 36060 ft | 489 kts | 263° |
| 2026-05-04 12:59 | 54.84784 | -175.95855 | 36044 ft | 489 kts | 263° |
| 2026-05-04 12:59 | 54.83781 | -176.07593 | 36040 ft | 490 kts | 263° |
| 2026-05-04 13:00 | 54.82766 | -176.19309 | 36039 ft | 491 kts | 263° |
| 2026-05-04 13:00 | 54.81742 | -176.31003 | 36038 ft | 491 kts | 263° |
| 2026-05-04 13:01 | 54.80703 | -176.42727 | 36037 ft | 491 kts | 263° |
| 2026-05-04 13:01 | 54.79655 | -176.54425 | 36036 ft | 491 kts | 263° |
| 2026-05-04 13:02 | 54.78595 | -176.66120 | 36035 ft | 492 kts | 262° |
| 2026-05-04 13:02 | 54.77523 | -176.77828 | 36030 ft | 492 kts | 262° |
| 2026-05-04 13:03 | 54.76440 | -176.89518 | 36029 ft | 492 kts | 262° |
| 2026-05-04 13:03 | 54.75345 | -177.01223 | 36028 ft | 493 kts | 262° |
| 2026-05-04 13:04 | 54.74236 | -177.12933 | 36027 ft | 493 kts | 262° |
| 2026-05-04 13:04 | 54.73117 | -177.24640 | 36025 ft | 493 kts | 262° |
| 2026-05-04 13:05 | 54.71984 | -177.36358 | 36023 ft | 494 kts | 262° |
| 2026-05-04 13:05 | 54.70838 | -177.48089 | 36013 ft | 495 kts | 262° |
| 2026-05-04 13:06 | 54.69699 | -177.59840 | 36012 ft | 496 kts | 262° |
| 2026-05-04 13:06 | 54.68574 | -177.71610 | 36011 ft | 497 kts | 261° |
| 2026-05-04 13:07 | 54.67378 | -177.83278 | 36010 ft | 497 kts | 261° |
| 2026-05-04 13:07 | 54.66148 | -177.95117 | 36010 ft | 497 kts | 261° |
| 2026-05-04 13:08 | 54.64923 | -178.06875 | 36010 ft | 499 kts | 261° |
| 2026-05-04 13:08 | 54.63703 | -178.18688 | 36010 ft | 500 kts | 261° |
| 2026-05-04 13:09 | 54.62477 | -178.30486 | 36009 ft | 499 kts | 261° |
| 2026-05-04 13:09 | 54.61231 | -178.42277 | 36009 ft | 499 kts | 261° |
| 2026-05-04 13:10 | 54.59972 | -178.54050 | 36009 ft | 499 kts | 260° |
| 2026-05-04 13:10 | 54.58699 | -178.65822 | 36008 ft | 499 kts | 260° |
| 2026-05-04 13:11 | 54.57486 | -178.77608 | 36008 ft | 499 kts | 261° |
| 2026-05-04 13:11 | 54.56298 | -178.89313 | 36008 ft | 499 kts | 261° |
| 2026-05-04 13:12 | 54.55048 | -179.01091 | 36008 ft | 500 kts | 260° |
| 2026-05-04 13:12 | 54.53772 | -179.12865 | 36008 ft | 501 kts | 260° |
| 2026-05-04 13:13 | 54.52476 | -179.24651 | 36008 ft | 502 kts | 260° |
| 2026-05-04 13:13 | 54.51165 | -179.36457 | 36007 ft | 502 kts | 260° |
| 2026-05-04 13:14 | 54.49841 | -179.48267 | 36007 ft | 503 kts | 259° |
| 2026-05-04 13:14 | 54.48493 | -179.60176 | 36008 ft | 504 kts | 259° |
| 2026-05-04 13:15 | 54.47140 | -179.72016 | 36008 ft | 505 kts | 259° |
| 2026-05-04 13:15 | 54.45781 | -179.83796 | 36007 ft | 506 kts | 259° |
| 2026-05-04 13:16 | 54.44391 | -179.95742 | 36007 ft | 507 kts | 259° |
| 2026-05-04 13:16 | 54.43007 | 179.92474 | 35975 ft | 507 kts | 259° |
| 2026-05-04 13:17 | 54.41590 | 179.80516 | 35964 ft | 508 kts | 259° |
| 2026-05-04 13:17 | 54.40180 | 179.68724 | 35963 ft | 508 kts | 259° |
| 2026-05-04 13:18 | 54.38750 | 179.56870 | 35962 ft | 507 kts | 258° |
| 2026-05-04 13:18 | 54.37307 | 179.45012 | 35961 ft | 507 kts | 258° |
| 2026-05-04 13:19 | 54.35855 | 179.33179 | 35960 ft | 507 kts | 258° |
| 2026-05-04 13:19 | 54.34391 | 179.21354 | 35959 ft | 507 kts | 258° |
| 2026-05-04 13:20 | 54.32916 | 179.09543 | 35959 ft | 507 kts | 258° |
| 2026-05-04 13:20 | 54.31427 | 178.97715 | 35959 ft | 508 kts | 258° |
| 2026-05-04 13:21 | 54.29926 | 178.85901 | 35958 ft | 508 kts | 258° |
| 2026-05-04 13:21 | 54.28475 | 178.74056 | 35957 ft | 510 kts | 258° |
| 2026-05-04 13:22 | 54.26935 | 178.62206 | 35956 ft | 510 kts | 258° |
| 2026-05-04 13:22 | 54.25367 | 178.50362 | 35956 ft | 512 kts | 257° |
| 2026-05-04 13:23 | 54.23786 | 178.38475 | 35955 ft | 513 kts | 257° |
| 2026-05-04 13:23 | 54.22216 | 178.26586 | 35954 ft | 514 kts | 258° |
| 2026-05-04 13:24 | 54.20970 | 178.16666 | 35954 ft | 514 kts | 258° |
| 2026-05-04 13:24 | 54.19444 | 178.04730 | 35953 ft | 515 kts | 258° |
| 2026-05-04 13:25 | 54.16853 | 177.84818 | 35952 ft | 515 kts | 257° |
| 2026-05-04 13:25 | 54.15536 | 177.74836 | 35952 ft | 515 kts | 257° |
| 2026-05-04 13:26 | 54.14054 | 177.62902 | 35951 ft | 515 kts | 258° |
| 2026-05-04 13:26 | 54.12554 | 177.50988 | 35947 ft | 513 kts | 258° |
| 2026-05-04 13:27 | 54.11011 | 177.39112 | 35947 ft | 513 kts | 258° |
| 2026-05-04 13:27 | 54.09453 | 177.27315 | 35946 ft | 513 kts | 257° |
| 2026-05-04 13:28 | 54.07870 | 177.15460 | 35946 ft | 513 kts | 257° |
| 2026-05-04 13:28 | 54.06274 | 177.03612 | 35946 ft | 513 kts | 257° |
| 2026-05-04 13:29 | 54.04666 | 176.91778 | 35945 ft | 513 kts | 257° |
| 2026-05-04 13:29 | 54.03046 | 176.79952 | 35945 ft | 514 kts | 257° |
| 2026-05-04 13:30 | 54.01410 | 176.68100 | 35944 ft | 515 kts | 257° |
| 2026-05-04 13:30 | 53.99762 | 176.56257 | 35944 ft | 515 kts | 257° |
| 2026-05-04 13:31 | 53.98096 | 176.44370 | 35944 ft | 518 kts | 257° |
| 2026-05-04 13:31 | 53.96413 | 176.32467 | 35944 ft | 518 kts | 257° |
| 2026-05-04 13:32 | 53.94720 | 176.20587 | 35944 ft | 518 kts | 257° |
| 2026-05-04 13:32 | 53.93013 | 176.08691 | 35943 ft | 519 kts | 257° |
| 2026-05-04 13:33 | 53.91294 | 175.96806 | 35943 ft | 519 kts | 256° |
| 2026-05-04 13:33 | 53.89564 | 175.84941 | 35943 ft | 519 kts | 256° |
| 2026-05-04 13:34 | 53.87822 | 175.73080 | 35943 ft | 518 kts | 256° |
| 2026-05-04 13:34 | 53.86072 | 175.61251 | 35942 ft | 518 kts | 256° |
| 2026-05-04 13:35 | 53.83425 | 175.43528 | 35942 ft | 517 kts | 256° |
| 2026-05-04 13:36 | 53.81647 | 175.31734 | 35942 ft | 517 kts | 256° |
| 2026-05-04 13:36 | 53.79860 | 175.19969 | 35942 ft | 516 kts | 256° |
| 2026-05-04 13:37 | 53.78074 | 175.08286 | 35941 ft | 516 kts | 256° |
| 2026-05-04 13:37 | 53.76254 | 174.96477 | 35941 ft | 516 kts | 256° |
| 2026-05-04 13:38 | 53.74448 | 174.84839 | 35941 ft | 515 kts | 256° |
| 2026-05-04 13:38 | 53.72621 | 174.73145 | 35941 ft | 515 kts | 256° |
| 2026-05-04 13:39 | 53.70781 | 174.61454 | 35941 ft | 515 kts | 256° |
| 2026-05-04 13:39 | 53.68933 | 174.49792 | 35941 ft | 515 kts | 256° |
| 2026-05-04 13:40 | 53.67071 | 174.38122 | 35941 ft | 515 kts | 256° |
| 2026-05-04 13:40 | 53.65196 | 174.26457 | 35941 ft | 515 kts | 256° |
| 2026-05-04 13:41 | 53.63314 | 174.14826 | 35941 ft | 515 kts | 256° |
| 2026-05-04 13:41 | 53.61450 | 174.03186 | 35940 ft | 515 kts | 257° |
| 2026-05-04 13:42 | 53.58609 | 173.85758 | 35940 ft | 514 kts | 256° |
| 2026-05-04 13:42 | 53.56667 | 173.74188 | 35940 ft | 513 kts | 256° |
| 2026-05-04 13:43 | 53.54720 | 173.62638 | 35940 ft | 513 kts | 256° |
| 2026-05-04 13:43 | 53.52788 | 173.51102 | 35940 ft | 512 kts | 256° |
| 2026-05-04 13:44 | 53.50928 | 173.39559 | 35939 ft | 511 kts | 256° |
| 2026-05-04 13:44 | 53.49047 | 173.28054 | 35940 ft | 511 kts | 256° |
| 2026-05-04 13:45 | 53.47151 | 173.16576 | 35939 ft | 509 kts | 256° |
| 2026-05-04 13:45 | 53.45248 | 173.05146 | 35940 ft | 508 kts | 256° |
| 2026-05-04 13:46 | 53.43382 | 172.93720 | 35940 ft | 507 kts | 257° |
| 2026-05-04 13:46 | 53.41565 | 172.82307 | 35940 ft | 506 kts | 257° |
| 2026-05-04 13:47 | 53.39696 | 172.70942 | 35940 ft | 505 kts | 257° |
| 2026-05-04 13:47 | 53.37805 | 172.59617 | 35940 ft | 504 kts | 256° |
| 2026-05-04 13:48 | 53.35901 | 172.48319 | 35940 ft | 504 kts | 256° |
| 2026-05-04 13:48 | 53.34000 | 172.37128 | 35939 ft | 503 kts | 256° |
| 2026-05-04 13:49 | 53.32064 | 172.25804 | 35939 ft | 503 kts | 256° |
| 2026-05-04 13:49 | 53.30130 | 172.14562 | 35939 ft | 502 kts | 256° |
| 2026-05-04 13:50 | 53.28203 | 172.03433 | 35939 ft | 502 kts | 256° |
| 2026-05-04 13:50 | 53.26250 | 171.92231 | 35938 ft | 501 kts | 256° |
| 2026-05-04 13:51 | 53.24298 | 171.81097 | 35939 ft | 499 kts | 256° |
| 2026-05-04 13:51 | 53.22339 | 171.69990 | 35939 ft | 499 kts | 256° |